Time;durP1;ratioP1;P1;durP2;ratioP2;P2;SDS_P1;SDS_P2;PMS_P1;PMS_P2;Temp;Humidity;BMP_temperature;BMP_pressure;BME280_temperature;BME280_humidity;BME280_pressure;Samples;Min_cycle;Max_cycle;Signal;HPM_P1;HPM_P2
2022/06/04 00:00:17;;;;;;;6.00;3.85;;;;;;;21.44;50.17;93451.09;5034447;28;20036;-90
2022/06/04 00:02:43;;;;;;;6.45;4.78;;;;;;;21.45;49.92;93452.56;5037366;28;20040;-89
2022/06/04 00:05:10;;;;;;;4.97;3.65;;;;;;;21.44;50.01;93443.56;5035638;28;20357;-89
2022/06/04 00:07:35;;;;;;;5.47;4.13;;;;;;;21.47;49.97;93439.03;5036242;28;20029;-90
2022/06/04 00:15:29;;;;;;;5.32;4.10;;;;;;;21.47;50.02;93444.53;5040480;28;20606;-89
2022/06/04 00:17:54;;;;;;;5.60;3.90;;;;;;;21.45;50.15;93445.06;5016663;28;20029;-89
2022/06/04 00:20:20;;;;;;;5.15;4.13;;;;;;;21.43;49.88;93447.63;5030675;28;20040;-89
2022/06/04 00:22:46;;;;;;;7.13;4.00;;;;;;;21.45;50.11;93447.06;5016032;28;20045;-90
2022/06/04 00:25:13;;;;;;;4.03;3.28;;;;;;;21.46;50.09;93451.28;5024985;28;20095;-90
2022/06/04 00:27:38;;;;;;;4.93;3.90;;;;;;;21.45;50.11;93456.06;5012599;28;20056;-89
2022/06/04 00:30:05;;;;;;;5.85;4.05;;;;;;;21.44;50.06;93451.81;4996555;28;20041;-89
2022/06/04 00:32:31;;;;;;;4.10;3.35;;;;;;;21.44;49.89;93448.34;5012362;28;20041;-89
2022/06/04 00:35:00;;;;;;;4.32;3.55;;;;;;;21.42;49.91;93451.63;4993003;28;20049;-89
2022/06/04 00:37:26;;;;;;;7.50;4.45;;;;;;;21.42;49.98;93446.13;4986716;28;20088;-89
2022/06/04 00:39:51;;;;;;;4.85;3.65;;;;;;;21.44;50.13;93443.56;4976727;28;20042;-90
2022/06/04 00:42:26;;;;;;;4.65;3.42;;;;;;;21.45;49.84;93433.31;4992409;28;20042;-90
2022/06/04 00:45:20;;;;;;;4.57;3.92;;;;;;;21.43;49.77;93433.13;4977628;28;20045;-89
2022/06/04 00:47:45;;;;;;;5.32;3.65;;;;;;;21.43;49.92;93420.13;5025497;28;20041;-89
2022/06/04 00:50:12;;;;;;;5.10;4.30;;;;;;;21.43;50.18;93422.88;4992587;28;20485;-89
2022/06/04 00:52:37;;;;;;;5.00;3.78;;;;;;;21.41;49.99;93417.16;4977249;28;20405;-90
2022/06/04 00:55:03;;;;;;;7.95;4.03;;;;;;;21.42;50.02;93424.13;4992696;28;20050;-89
2022/06/04 00:57:35;;;;;;;4.85;3.85;;;;;;;21.41;50.09;93414.41;4995530;28;20041;-90
2022/06/04 01:00:20;;;;;;;4.25;3.70;;;;;;;21.41;49.99;93414.41;5021047;28;20041;-90
2022/06/04 01:02:59;;;;;;;4.38;3.45;;;;;;;21.40;49.95;93404.69;5028439;28;20041;-88
2022/06/04 01:05:27;;;;;;;4.15;3.70;;;;;;;21.41;50.13;93410.91;5027127;28;20045;-88
2022/06/04 01:07:59;;;;;;;5.30;3.70;;;;;;;21.40;49.90;93412.91;5045432;28;20045;-90
2022/06/04 01:10:30;;;;;;;5.53;3.95;;;;;;;21.42;49.96;93415.16;5043247;28;20076;-89
2022/06/04 01:13:07;;;;;;;3.88;3.40;;;;;;;21.40;49.95;93420.44;5028641;28;20484;-89
2022/06/04 01:15:47;;;;;;;3.67;3.03;;;;;;;21.40;50.24;93426.69;5026817;28;20069;-88
2022/06/04 01:18:22;;;;;;;4.38;3.55;;;;;;;21.39;49.84;93414.19;5015943;28;20044;-89
2022/06/04 01:20:53;;;;;;;5.03;4.40;;;;;;;21.41;49.94;93435.66;5028740;28;20041;-89
2022/06/04 01:23:27;;;;;;;4.47;3.60;;;;;;;21.42;49.81;93435.13;5029103;28;20060;-89
2022/06/04 01:26:14;;;;;;;5.15;3.80;;;;;;;21.38;49.79;93434.72;5026977;28;20057;-89
2022/06/04 01:28:46;;;;;;;4.63;3.63;;;;;;;21.40;49.57;93437.69;5027579;28;20050;-89
2022/06/04 01:31:12;;;;;;;4.88;3.55;;;;;;;21.39;50.08;93438.94;4994913;28;20060;-89
2022/06/04 01:33:40;;;;;;;4.63;3.60;;;;;;;21.39;49.87;93440.94;4992390;28;20483;-88
2022/06/04 01:36:07;;;;;;;5.03;3.60;;;;;;;21.38;50.01;93434.72;5009022;28;20042;-89
2022/06/04 01:38:40;;;;;;;4.88;3.22;;;;;;;21.40;49.89;93434.19;5028181;28;20052;-87
2022/06/04 01:41:13;;;;;;;5.57;3.97;;;;;;;21.38;49.92;93431.22;4998323;28;20037;-89
2022/06/04 01:43:44;;;;;;;4.70;3.80;;;;;;;21.38;49.89;93439.47;4995386;28;20075;-89
2022/06/04 01:46:19;;;;;;;5.82;3.42;;;;;;;21.39;50.00;93446.44;4991570;28;20034;-90
2022/06/04 01:48:44;;;;;;;4.90;3.90;;;;;;;21.38;49.88;93442.22;5011110;28;20045;-90
2022/06/04 01:51:10;;;;;;;4.68;3.38;;;;;;;21.38;50.03;93442.22;4989859;28;20212;-90
2022/06/04 01:53:37;;;;;;;3.58;3.20;;;;;;;21.37;49.91;93440.75;4958086;28;20128;-89
2022/06/04 01:56:07;;;;;;;5.38;3.58;;;;;;;21.37;49.60;93433.22;4956705;28;20124;-88
2022/06/04 01:58:40;;;;;;;4.73;3.23;;;;;;;21.37;49.95;93429.75;4970333;28;20070;-89
2022/06/04 02:01:08;;;;;;;4.55;3.38;;;;;;;21.37;49.97;93427.00;4961541;28;20092;-89
2022/06/04 02:03:54;;;;;;;4.03;2.95;;;;;;;21.37;50.05;93427.00;4957874;28;20245;-89
2022/06/04 02:06:26;;;;;;;3.65;3.30;;;;;;;21.36;49.97;93431.00;4972727;28;20045;-89
2022/06/04 02:08:57;;;;;;;3.72;3.30;;;;;;;21.38;49.88;93436.72;4957963;28;20386;-89
2022/06/04 02:11:23;;;;;;;4.15;3.40;;;;;;;21.35;50.02;93449.50;4956193;28;20046;-89
2022/06/04 02:13:50;;;;;;;3.92;3.20;;;;;;;21.37;50.18;93457.25;4970279;28;20085;-89
2022/06/04 02:16:36;;;;;;;4.72;3.35;;;;;;;21.36;50.03;93455.75;4958521;28;20049;-88
2022/06/04 02:19:02;;;;;;;5.25;3.40;;;;;;;21.36;49.98;93453.00;4968695;28;20042;-89
2022/06/04 02:21:27;;;;;;;3.55;3.10;;;;;;;21.35;49.91;93463.25;4976089;28;20507;-88
2022/06/04 02:23:53;;;;;;;3.50;3.20;;;;;;;21.36;49.99;93456.50;4989957;28;20085;-88
2022/06/04 02:26:19;;;;;;;3.15;2.83;;;;;;;21.35;49.93;93449.50;4990741;28;20373;-89
2022/06/04 02:28:45;;;;;;;4.05;3.00;;;;;;;21.35;49.77;93460.50;4974840;28;20038;-89
2022/06/04 02:31:22;;;;;;;3.28;2.83;;;;;;;21.37;49.90;93454.50;4974453;28;20169;-90
2022/06/04 02:34:11;;;;;;;3.63;3.20;;;;;;;21.35;50.13;93448.78;5007197;28;20049;-90
2022/06/04 02:36:56;;;;;;;3.28;2.83;;;;;;;21.33;49.89;93452.06;5006500;28;20105;-89
2022/06/04 02:39:37;;;;;;;3.70;2.95;;;;;;;21.34;49.96;93458.28;5022852;28;20114;-89
2022/06/04 02:42:08;;;;;;;4.95;3.00;;;;;;;21.34;50.22;93453.53;5040492;28;20052;-89
2022/06/04 02:44:38;;;;;;;3.72;3.28;;;;;;;21.34;50.04;93459.03;5010503;28;20107;-89
2022/06/04 02:47:05;;;;;;;3.40;2.78;;;;;;;21.33;49.98;93443.06;4999631;28;20477;-88
2022/06/04 02:49:53;;;;;;;4.38;2.78;;;;;;;21.34;49.97;93453.53;5006847;28;20069;-90
2022/06/04 02:52:18;;;;;;;3.30;3.00;;;;;;;21.34;49.97;93445.28;4990899;28;20046;-88
2022/06/04 02:54:51;;;;;;;3.38;2.63;;;;;;;21.33;50.04;93448.56;5007056;28;20041;-89
2022/06/04 02:57:17;;;;;;;3.85;2.92;;;;;;;21.33;49.95;93449.31;5006687;28;20034;-88
2022/06/04 02:59:43;;;;;;;5.40;3.70;;;;;;;21.32;50.13;93452.56;5022000;28;20056;-90
2022/06/04 03:02:09;;;;;;;3.50;3.00;;;;;;;21.33;50.23;93454.81;5026044;28;20443;-89
2022/06/04 03:04:42;;;;;;;3.33;2.70;;;;;;;21.30;50.12;93453.09;5026811;28;20052;-89
2022/06/04 03:07:08;;;;;;;4.25;3.20;;;;;;;21.33;49.98;93456.81;5009726;28;20037;-89
2022/06/04 03:09:33;;;;;;;3.28;2.58;;;;;;;21.31;49.90;93462.84;5026454;28;20176;-88
2022/06/04 03:11:59;;;;;;;3.50;2.53;;;;;;;21.31;49.93;93462.09;5010152;28;20038;-88
2022/06/04 03:14:24;;;;;;;4.22;2.88;;;;;;;21.34;49.99;93459.03;5006120;28;20045;-88
2022/06/04 03:16:49;;;;;;;3.10;2.78;;;;;;;21.33;49.75;93465.81;5002518;28;20416;-88
2022/06/04 03:19:15;;;;;;;3.08;2.67;;;;;;;21.33;49.93;93467.81;4989728;28;20054;-90
2022/06/04 03:21:41;;;;;;;3.88;2.88;;;;;;;21.33;49.87;93467.81;5018801;28;20404;-88
2022/06/04 03:24:08;;;;;;;3.17;2.60;;;;;;;21.30;49.91;93463.38;4990810;28;20053;-89
2022/06/04 03:26:33;;;;;;;3.35;2.88;;;;;;;21.30;49.76;93455.13;5025657;28;20073;-89
2022/06/04 03:28:59;;;;;;;3.15;2.58;;;;;;;21.30;49.84;93458.59;5009867;28;20104;-90
2022/06/04 03:31:27;;;;;;;4.07;2.78;;;;;;;21.30;49.92;93466.84;4992309;28;20480;-89
2022/06/04 03:33:53;;;;;;;3.88;2.95;;;;;;;21.31;49.98;93465.59;4994734;28;20037;-88
2022/06/04 03:36:19;;;;;;;3.13;2.60;;;;;;;21.31;49.55;93471.09;4996761;28;20455;-89
2022/06/04 03:38:44;;;;;;;3.03;2.47;;;;;;;21.29;50.09;93473.63;5030417;28;20046;-90
2022/06/04 03:41:10;;;;;;;3.78;3.00;;;;;;;21.31;50.06;93475.84;5013288;28;20042;-90
2022/06/04 03:43:35;;;;;;;3.80;2.60;;;;;;;21.29;49.85;93481.88;5025759;28;20065;-89
2022/06/04 03:46:01;;;;;;;3.60;3.00;;;;;;;21.30;50.01;93479.88;4994084;28;20037;-90
2022/06/04 03:48:27;;;;;;;5.65;3.13;;;;;;;21.31;49.89;93479.34;5026944;28;20452;-88
2022/06/04 03:50:53;;;;;;;3.72;2.50;;;;;;;21.31;49.99;93484.09;4996215;28;20072;-89
2022/06/04 03:53:18;;;;;;;3.03;2.72;;;;;;;21.32;50.05;93482.81;4997042;28;20037;-88
2022/06/04 03:55:44;;;;;;;3.17;2.75;;;;;;;21.32;49.83;93480.81;5013217;28;20088;-89
2022/06/04 03:58:09;;;;;;;3.10;2.55;;;;;;;21.34;50.81;93477.53;5012945;28;20484;-88
2022/06/04 04:00:37;;;;;;;3.45;2.80;;;;;;;21.39;49.81;93468.44;4994466;28;20365;-90
2022/06/04 04:03:05;;;;;;;3.60;2.63;;;;;;;21.39;49.82;93473.94;4977117;28;20068;-89
2022/06/04 04:05:36;;;;;;;3.13;2.60;;;;;;;21.40;50.09;93478.19;4993484;28;20029;-88
2022/06/04 04:08:02;;;;;;;3.83;2.85;;;;;;;21.42;49.79;93479.13;4977429;28;20686;-89
2022/06/04 04:10:28;;;;;;;3.35;2.78;;;;;;;21.41;49.63;93477.66;5010875;28;20034;-89
2022/06/04 04:12:54;;;;;;;2.67;2.20;;;;;;;21.42;49.63;93481.16;5012977;28;20030;-87
2022/06/04 04:15:20;;;;;;;2.85;2.55;;;;;;;21.44;49.71;93482.06;5012405;28;20036;-88
2022/06/04 04:17:48;;;;;;;3.00;2.55;;;;;;;21.43;49.81;93479.88;5012171;28;20026;-90
2022/06/04 04:20:17;;;;;;;3.55;2.47;;;;;;;21.43;49.57;93469.63;5028945;28;20037;-89
2022/06/04 04:22:42;;;;;;;2.40;2.20;;;;;;;21.45;49.81;93469.81;5025130;28;20053;-89
2022/06/04 04:25:08;;;;;;;2.25;1.83;;;;;;;21.46;49.81;93468.53;4998784;28;20046;-88
2022/06/04 04:27:34;;;;;;;2.00;1.80;;;;;;;21.46;49.90;93476.03;5012693;28;20059;-89
2022/06/04 04:29:59;;;;;;;2.97;2.08;;;;;;;21.46;49.99;93476.03;4996451;28;20033;-89
2022/06/04 04:32:25;;;;;;;2.38;2.10;;;;;;;21.47;49.31;93483.78;5012565;28;20451;-88
2022/06/04 04:34:50;;;;;;;2.03;1.83;;;;;;;21.48;49.77;93481.75;4995937;28;20038;-88
2022/06/04 04:37:16;;;;;;;2.42;2.08;;;;;;;21.47;49.55;93489.28;4995749;28;20037;-89
2022/06/04 04:39:41;;;;;;;2.65;1.80;;;;;;;21.48;49.97;93485.25;5013030;28;20037;-89
2022/06/04 04:42:07;;;;;;;1.92;1.73;;;;;;;21.48;49.67;93488.00;4995771;28;20049;-90
2022/06/04 04:44:32;;;;;;;2.10;1.88;;;;;;;21.48;49.72;93485.25;4996050;28;20052;-88
2022/06/04 04:46:58;;;;;;;2.72;1.90;;;;;;;21.51;49.78;93488.97;4994653;28;20091;-88
2022/06/04 04:49:23;;;;;;;2.55;2.00;;;;;;;21.52;49.64;93498.69;4995553;28;20095;-89
2022/06/04 04:51:49;;;;;;;2.75;2.35;;;;;;;21.52;49.33;93496.69;4995449;28;20033;-89
2022/06/04 04:54:14;;;;;;;2.97;2.30;;;;;;;21.52;49.77;93499.44;4995344;28;20038;-89
2022/06/04 04:56:40;;;;;;;2.33;1.90;;;;;;;21.53;49.38;93500.91;4996345;28;20045;-88
2022/06/04 04:59:07;;;;;;;2.17;1.83;;;;;;;21.54;49.34;93485.91;4994579;28;20037;-89
2022/06/04 05:01:33;;;;;;;2.50;1.90;;;;;;;21.57;49.16;93494.34;4995577;28;20041;-90
2022/06/04 05:03:58;;;;;;;2.22;2.03;;;;;;;21.57;49.77;93495.09;4987682;28;20052;-88
2022/06/04 05:06:24;;;;;;;4.57;2.72;;;;;;;21.60;49.13;93507.06;4994698;28;20025;-89
2022/06/04 05:08:52;;;;;;;3.30;1.77;;;;;;;21.60;49.79;93499.56;4995751;28;20038;-90
2022/06/04 05:11:20;;;;;;;3.28;2.17;;;;;;;21.61;49.23;93501.03;4994796;28;20076;-88
2022/06/04 05:13:51;;;;;;;2.83;2.20;;;;;;;21.64;49.35;93493.72;5008333;28;20479;-89
2022/06/04 05:16:20;;;;;;;1.90;1.70;;;;;;;21.65;49.26;93495.22;4990670;28;20042;-89
2022/06/04 05:18:46;;;;;;;1.80;1.45;;;;;;;21.66;49.23;93497.41;4958949;28;20041;-89
2022/06/04 05:21:15;;;;;;;1.92;1.73;;;;;;;21.66;48.86;93493.91;4972732;28;20041;-88
2022/06/04 05:23:40;;;;;;;2.85;1.80;;;;;;;21.69;49.51;93509.38;4990304;28;20038;-88
2022/06/04 05:26:06;;;;;;;2.08;1.70;;;;;;;21.73;48.94;93509.78;4968360;28;20049;-89
2022/06/04 05:28:31;;;;;;;2.42;1.67;;;;;;;21.74;48.99;93509.25;5009464;28;20037;-88
2022/06/04 05:30:57;;;;;;;2.33;2.05;;;;;;;21.74;49.22;93506.50;4992470;28;20041;-88
2022/06/04 05:33:22;;;;;;;1.92;1.70;;;;;;;21.74;48.79;93503.75;5009733;28;20130;-88
2022/06/04 05:35:48;;;;;;;1.98;1.70;;;;;;;21.77;49.08;93505.47;4977191;28;20541;-89
2022/06/04 05:38:13;;;;;;;1.77;1.60;;;;;;;21.78;48.83;93504.19;5008506;28;20041;-88
2022/06/04 05:40:39;;;;;;;2.38;1.80;;;;;;;21.75;48.86;93510.00;4990601;28;20196;-88
2022/06/04 05:43:04;;;;;;;1.70;1.60;;;;;;;21.77;48.74;93519.22;4973152;28;20046;-88
2022/06/04 05:45:29;;;;;;;2.20;1.70;;;;;;;21.76;48.86;93517.00;4991422;28;20034;-90
2022/06/04 05:47:55;;;;;;;2.92;1.90;;;;;;;21.76;49.00;93514.97;5014650;28;20293;-88
2022/06/04 05:50:20;;;;;;;1.55;1.38;;;;;;;21.77;48.79;93515.72;4999775;28;20038;-88
2022/06/04 05:52:46;;;;;;;2.15;1.50;;;;;;;21.79;48.42;93521.44;5011226;28;20091;-89
2022/06/04 05:55:11;;;;;;;2.90;1.77;;;;;;;21.78;48.59;93522.72;4994304;28;20049;-88
2022/06/04 05:57:37;;;;;;;2.88;1.50;;;;;;;21.79;48.66;93521.44;5010307;28;20053;-88
2022/06/04 06:00:07;;;;;;;1.90;1.67;;;;;;;21.81;48.49;93519.66;4993921;28;20048;-88
2022/06/04 06:02:33;;;;;;;1.63;1.52;;;;;;;21.81;48.86;93530.66;5012086;28;20488;-87
2022/06/04 06:04:58;;;;;;;2.20;1.50;;;;;;;21.83;48.87;93530.88;5011092;28;20037;-86
2022/06/04 06:07:24;;;;;;;4.43;1.98;;;;;;;21.83;48.99;93530.88;5011028;28;20079;-89
2022/06/04 06:09:49;;;;;;;3.97;1.80;;;;;;;21.83;48.70;93522.59;5028703;28;20033;-87
2022/06/04 06:12:15;;;;;;;16.08;2.78;;;;;;;21.80;48.77;93520.91;5010659;28;20056;-85
2022/06/04 06:14:41;;;;;;;10.20;1.65;;;;;;;21.84;48.73;93515.84;5027167;28;20465;-84
2022/06/04 06:17:06;;;;;;;3.25;1.60;;;;;;;21.83;48.89;93519.13;5010225;28;20038;-85
2022/06/04 06:19:31;;;;;;;3.50;1.83;;;;;;;21.84;48.50;93520.59;4993140;28;20045;-84
2022/06/04 06:21:57;;;;;;;2.20;1.73;;;;;;;21.84;48.75;93526.09;4990578;28;20046;-85
2022/06/04 06:24:23;;;;;;;1.90;1.52;;;;;;;21.86;48.60;93531.81;4989765;28;20037;-84
2022/06/04 06:26:53;;;;;;;3.72;1.88;;;;;;;21.85;48.86;93522.81;5010254;28;20405;-86
2022/06/04 06:29:19;;;;;;;4.13;1.60;;;;;;;21.88;48.72;93532.00;4977732;28;20559;-86
2022/06/04 06:31:44;;;;;;;2.33;1.77;;;;;;;21.89;48.76;93516.97;5010161;28;20255;-86
2022/06/04 06:34:10;;;;;;;1.98;1.73;;;;;;;21.89;48.54;93517.72;4993544;28;20073;-86
2022/06/04 06:36:35;;;;;;;2.28;1.90;;;;;;;21.90;48.63;93524.69;4993790;28;20044;-85
2022/06/04 06:39:01;;;;;;;3.17;1.90;;;;;;;21.92;48.69;93526.91;5010749;28;20042;-86
2022/06/04 06:41:26;;;;;;;6.57;3.03;;;;;;;21.93;48.58;93522.91;5010217;28;20037;-86
2022/06/04 06:43:52;;;;;;;9.15;4.32;;;;;;;21.94;48.48;93524.38;5009425;28;20041;-87
2022/06/04 06:46:22;;;;;;;14.27;4.07;;;;;;;21.94;48.54;93526.41;4993747;28;20038;-87
2022/06/04 06:48:49;;;;;;;4.18;2.80;;;;;;;21.94;48.52;93529.16;4993218;28;20063;-87
2022/06/04 06:51:24;;;;;;;6.68;3.65;;;;;;;21.92;48.45;93528.94;4990046;28;20034;-86
2022/06/04 06:53:49;;;;;;;7.53;3.50;;;;;;;21.96;48.35;93540.38;4990657;28;20060;-89
2022/06/04 06:56:17;;;;;;;10.27;3.55;;;;;;;21.97;48.68;93539.09;5004381;28;20473;-88
2022/06/04 06:58:43;;;;;;;11.15;4.88;;;;;;;21.98;48.34;93540.59;4998520;28;20045;-87
2022/06/04 07:01:08;;;;;;;21.42;7.43;;;;;;;21.97;48.35;93539.84;5009386;28;20044;-87
2022/06/04 07:03:34;;;;;;;33.97;13.70;;;;;;;21.98;48.45;93544.06;4993566;28;20332;-86
2022/06/04 07:06:01;;;;;;;53.53;18.13;;;;;;;21.98;48.58;93546.09;5009171;28;20041;-85
2022/06/04 07:08:27;;;;;;;64.60;20.05;;;;;;;22.02;48.85;93543.78;4993115;28;20380;-86
2022/06/04 07:10:53;;;;;;;38.92;18.52;;;;;;;22.02;48.84;93546.53;5009217;28;20084;-87
2022/06/04 07:13:18;;;;;;;37.15;14.60;;;;;;;22.05;48.58;93548.22;4996978;28;20400;-86
2022/06/04 07:15:44;;;;;;;34.95;14.70;;;;;;;22.06;48.94;93547.69;5005355;28;20053;-86
2022/06/04 07:18:11;;;;;;;37.47;14.32;;;;;;;22.06;48.80;93538.69;5009112;28;20034;-85
2022/06/04 07:20:37;;;;;;;44.28;17.65;;;;;;;22.05;48.86;93540.72;5026449;28;20504;-85
2022/06/04 07:23:03;;;;;;;36.13;14.02;;;;;;;22.05;49.19;93548.22;5023847;28;20044;-85
2022/06/04 07:25:28;;;;;;;69.32;28.98;;;;;;;22.06;48.94;93538.69;5012611;28;20030;-87
2022/06/04 07:27:54;;;;;;;74.57;24.95;;;;;;;22.07;48.49;93535.41;5025366;28;20037;-87
2022/06/04 07:30:19;;;;;;;63.13;28.17;;;;;;;22.07;48.65;93531.94;5009709;28;20029;-87
2022/06/04 07:32:45;;;;;;;76.30;30.23;;;;;;;22.05;48.49;93531.72;5025911;28;20492;-87
2022/06/04 07:35:10;;;;;;;71.72;26.05;;;;;;;22.06;48.63;93528.44;5009396;28;20064;-87
2022/06/04 07:37:36;;;;;;;62.00;26.38;;;;;;;22.08;48.59;93533.41;5025820;28;20041;-88
2022/06/04 07:40:01;;;;;;;51.55;23.27;;;;;;;22.05;48.38;93524.19;5004974;28;20038;-87
2022/06/04 07:42:27;;;;;;;84.97;27.25;;;;;;;22.05;48.51;93520.69;4989315;28;20468;-87
2022/06/04 07:44:53;;;;;;;50.22;22.45;;;;;;;22.08;48.63;93520.38;4990096;28;20054;-89
2022/06/04 07:47:18;;;;;;;46.05;21.65;;;;;;;22.11;48.39;93529.56;5000313;28;20045;-87
2022/06/04 07:49:43;;;;;;;45.80;24.50;;;;;;;22.06;48.44;93527.69;5008878;28;20045;-87
2022/06/04 07:52:09;;;;;;;57.30;20.42;;;;;;;22.09;48.46;93529.34;5024523;28;20050;-87
2022/06/04 07:54:35;;;;;;;63.15;22.83;;;;;;;22.08;48.50;93536.91;4992537;28;20042;-87
2022/06/04 07:57:00;;;;;;;63.17;25.02;;;;;;;22.11;48.23;93535.81;5025644;28;20065;-87
2022/06/04 07:59:26;;;;;;;69.72;26.80;;;;;;;22.06;48.81;93533.94;5008482;28;20069;-87
2022/06/04 08:01:51;;;;;;;61.33;27.05;;;;;;;22.08;48.40;93536.16;5025270;28;20045;-88
2022/06/04 08:04:17;;;;;;;83.47;26.90;;;;;;;22.09;48.56;93545.88;5025356;28;20128;-86
2022/06/04 08:06:42;;;;;;;102.10;33.88;;;;;;;22.12;48.62;93548.31;5009020;28;20052;-88
2022/06/04 08:09:07;;;;;;;107.07;33.83;;;;;;;22.09;48.61;93543.88;5024294;28;20030;-88
2022/06/04 08:11:35;;;;;;;128.68;37.40;;;;;;;22.08;48.61;93544.41;5009220;28;20045;-87
2022/06/04 08:14:17;;;;;;;98.00;30.45;;;;;;;22.06;48.66;93555.22;5024632;28;20056;-87
2022/06/04 08:16:47;;;;;;;79.85;32.10;;;;;;;22.07;48.76;93545.69;5025119;28;20046;-87
2022/06/04 08:19:13;;;;;;;69.50;29.70;;;;;;;22.08;49.34;93552.69;5009511;28;20041;-88
2022/06/04 08:21:40;;;;;;;94.82;33.70;;;;;;;22.10;48.74;93548.09;5026887;28;20038;-90
2022/06/04 08:24:06;;;;;;;119.82;37.75;;;;;;;22.09;48.61;93548.63;5011676;28;20511;-88
2022/06/04 08:26:31;;;;;;;128.02;38.35;;;;;;;22.08;49.17;93549.94;5028535;28;20419;-87
2022/06/04 08:28:56;;;;;;;150.43;45.80;;;;;;;22.08;48.55;93544.41;4995046;28;20410;-89
2022/06/04 08:31:22;;;;;;;120.40;38.20;;;;;;;22.07;48.50;93540.94;5010260;28;20037;-88
2022/06/04 08:33:48;;;;;;;106.07;41.80;;;;;;;22.09;48.74;93551.38;5012450;28;20567;-88
2022/06/04 08:36:14;;;;;;;79.63;32.53;;;;;;;22.11;48.65;93554.34;4995428;28;20091;-88
2022/06/04 08:38:39;;;;;;;137.88;43.63;;;;;;;22.09;48.47;93557.63;5012228;28;20056;-88
2022/06/04 08:41:06;;;;;;;127.18;40.03;;;;;;;22.13;48.60;93557.31;5028145;28;20108;-87
2022/06/04 08:43:43;;;;;;;157.05;44.75;;;;;;;22.12;48.65;93570.34;5028476;28;20037;-88
2022/06/04 08:46:17;;;;;;;148.65;42.55;;;;;;;22.11;48.72;93570.88;5027768;28;20508;-88
2022/06/04 08:48:42;;;;;;;138.90;44.33;;;;;;;22.10;49.02;93575.63;5011523;28;20440;-87
2022/06/04 08:51:20;;;;;;;93.00;39.25;;;;;;;22.11;48.84;93573.63;5027357;28;20049;-88
2022/06/04 08:53:46;;;;;;;211.90;58.35;;;;;;;22.12;48.77;93567.59;4980422;28;20599;-89
2022/06/04 08:59:22;;;;;;;223.80;63.53;;;;;;;22.12;48.51;93573.09;5014927;28;20621;-88
2022/06/04 09:01:54;;;;;;;181.50;54.88;;;;;;;22.11;49.13;93573.63;4996854;28;20099;-87
2022/06/04 09:04:42;;;;;;;180.77;55.88;;;;;;;22.11;48.88;93581.88;5011659;28;20562;-87
2022/06/04 09:07:16;;;;;;;176.93;58.45;;;;;;;22.10;49.87;93572.88;5028467;28;20048;-87
2022/06/04 09:10:04;;;;;;;149.35;53.67;;;;;;;22.12;48.82;93580.59;5012803;28;20124;-87
2022/06/04 09:12:50;;;;;;;203.60;63.35;;;;;;;22.14;48.94;93570.53;5010119;28;20041;-88
2022/06/04 09:15:27;;;;;;;177.85;62.50;;;;;;;22.12;48.94;93570.34;5027449;28;20043;-88
2022/06/04 09:17:54;;;;;;;343.13;93.47;;;;;;;22.16;48.76;93578.28;5007774;28;20120;-88
2022/06/04 09:20:28;;;;;;;254.23;69.22;;;;;;;22.13;49.17;93587.59;5007653;28;20045;-87
2022/06/04 09:22:56;;;;;;;167.63;59.72;;;;;;;22.14;48.95;93580.81;5008133;28;20042;-88
2022/06/04 09:25:23;;;;;;;227.75;74.05;;;;;;;22.15;49.07;93580.28;5003829;28;20160;-87
2022/06/04 09:28:04;;;;;;;213.82;70.07;;;;;;;22.13;49.02;93580.06;5011366;28;20565;-88
2022/06/04 09:30:35;;;;;;;209.63;65.70;;;;;;;22.15;48.88;93582.31;5028222;28;20601;-88
2022/06/04 09:33:31;;;;;;;217.30;66.80;;;;;;;22.14;49.28;93580.81;5011664;28;20040;-88
2022/06/04 09:35:57;;;;;;;192.35;68.72;;;;;;;22.15;48.81;93585.78;5011124;28;20030;-87
2022/06/04 09:38:26;;;;;;;215.18;74.05;;;;;;;22.13;48.71;93591.09;5025200;28;20068;-88
2022/06/04 09:41:03;;;;;;;193.30;72.72;;;;;;;22.12;49.01;93589.59;5027770;28;20048;-88
2022/06/04 09:43:28;;;;;;;190.93;68.57;;;;;;;22.14;48.49;93587.06;5010521;28;20045;-87
2022/06/04 09:45:58;;;;;;;167.82;66.88;;;;;;;22.12;48.84;93583.38;5006585;28;20513;-87
2022/06/04 09:48:26;;;;;;;190.50;74.68;;;;;;;22.13;48.75;93577.31;4999818;28;20616;-87
2022/06/04 09:50:53;;;;;;;193.75;71.43;;;;;;;22.14;48.93;93584.31;5010445;28;20038;-87
2022/06/04 09:53:22;;;;;;;181.32;74.70;;;;;;;22.13;48.95;93587.59;5028161;28;20045;-87
2022/06/04 09:55:57;;;;;;;187.77;76.25;;;;;;;22.12;48.83;93581.34;4992221;28;20054;-87
2022/06/04 09:58:29;;;;;;;191.93;83.78;;;;;;;22.13;49.02;93579.34;4975983;28;20500;-88
2022/06/04 10:01:01;;;;;;;181.18;82.22;;;;;;;22.13;48.80;93574.56;5010047;28;20514;-88
2022/06/04 10:03:29;;;;;;;201.38;81.60;;;;;;;22.15;48.86;93579.53;5025709;28;20041;-87
2022/06/04 10:06:07;;;;;;;201.45;82.15;;;;;;;22.13;48.89;93580.06;4994661;28;20053;-87
2022/06/04 10:09:55;;;;;;;217.27;82.47;;;;;;;22.14;49.10;93572.56;4993752;28;20091;-86
2022/06/04 10:11:19;;;;;;;201.70;80.65;;;;;;;22.15;49.06;93569.28;5012622;28;20136;-87
2022/06/04 10:13:47;;;;;;;195.93;82.40;;;;;;;22.15;49.09;93563.78;5003978;28;20080;-86
2022/06/04 10:16:19;;;;;;;208.05;82.95;;;;;;;22.13;48.93;93563.56;5010129;28;20065;-88
2022/06/04 10:18:57;;;;;;;222.15;85.95;;;;;;;22.12;49.21;93564.09;5025938;28;20061;-87
2022/06/04 10:21:28;;;;;;;198.20;83.97;;;;;;;22.13;49.09;93562.81;5026364;28;20128;-87
2022/06/04 10:23:57;;;;;;;196.85;82.45;;;;;;;22.13;48.82;93560.81;5026373;28;20492;-87
2022/06/04 10:26:31;;;;;;;188.45;79.65;;;;;;;22.14;49.02;93561.53;5009688;28;20065;-88
2022/06/04 10:29:34;;;;;;;179.40;81.07;;;;;;;22.12;49.02;93562.06;5027755;28;20046;-88
2022/06/04 10:32:06;;;;;;;194.23;93.75;;;;;;;22.15;49.31;93568.53;5027637;28;20393;-88
2022/06/04 10:34:59;;;;;;;181.57;83.90;;;;;;;22.12;49.14;93569.59;5025837;28;20033;-88
2022/06/04 10:37:46;;;;;;;166.65;79.88;;;;;;;22.12;49.30;93566.84;5026996;28;20072;-87
2022/06/04 10:40:23;;;;;;;180.60;83.80;;;;;;;22.14;49.24;93569.81;5027694;28;20056;-88
2022/06/04 10:43:13;;;;;;;186.98;81.68;;;;;;;22.14;49.18;93567.06;5027536;28;20257;-88
2022/06/04 10:45:54;;;;;;;155.00;72.93;;;;;;;22.12;49.39;93572.34;5025991;28;20052;-87
2022/06/04 10:48:38;;;;;;;168.23;73.88;;;;;;;22.13;49.24;93563.56;4993279;28;20275;-88
2022/06/04 10:51:28;;;;;;;163.75;76.28;;;;;;;22.14;49.27;93564.31;5025772;28;20037;-87
2022/06/04 10:54:13;;;;;;;193.77;79.23;;;;;;;22.13;49.38;93554.56;5011593;28;20034;-88
2022/06/04 10:57:06;;;;;;;159.75;74.43;;;;;;;22.13;48.82;93558.06;5026160;28;20042;-88
2022/06/04 10:59:37;;;;;;;159.25;69.68;;;;;;;22.14;49.19;93567.06;5026360;28;20045;-88
2022/06/04 11:02:09;;;;;;;160.93;72.45;;;;;;;22.13;49.34;93573.84;4997183;28;20095;-87
2022/06/04 11:04:50;;;;;;;160.88;73.40;;;;;;;22.14;49.28;93562.28;4993446;28;20488;-87
2022/06/04 11:07:27;;;;;;;151.50;68.35;;;;;;;22.13;49.25;93566.31;4978386;28;20030;-88
2022/06/04 11:09:52;;;;;;;156.63;69.70;;;;;;;22.15;49.39;93568.53;5009414;28;20571;-88
2022/06/04 11:12:30;;;;;;;145.60;69.75;;;;;;;22.13;49.39;93568.31;5024670;28;20052;-88
2022/06/04 11:14:59;;;;;;;151.95;65.40;;;;;;;22.14;49.34;93580.81;5010299;28;20048;-88
2022/06/04 11:17:26;;;;;;;153.65;68.78;;;;;;;22.16;49.50;93570.75;4989614;28;20044;-88
2022/06/04 11:20:13;;;;;;;146.70;66.10;;;;;;;22.14;49.44;93576.06;5024611;28;20041;-88
2022/06/04 11:22:40;;;;;;;147.38;69.43;;;;;;;22.16;49.44;93573.50;5009443;28;20046;-87
2022/06/04 11:25:32;;;;;;;143.05;68.45;;;;;;;22.16;49.39;93570.75;5008218;28;20041;-88
2022/06/04 11:28:00;;;;;;;123.22;64.60;;;;;;;22.17;49.57;93572.25;5012713;28;20519;-87
2022/06/04 11:30:43;;;;;;;139.23;68.75;;;;;;;22.15;49.56;93574.78;5009034;28;20037;-88
2022/06/04 11:33:38;;;;;;;136.23;67.03;;;;;;;22.16;49.37;93567.25;4992970;28;20128;-87
2022/06/04 11:36:25;;;;;;;139.25;65.20;;;;;;;22.17;49.34;93550.22;5011269;28;20080;-88
2022/06/04 11:39:06;;;;;;;131.73;67.25;;;;;;;22.17;49.51;93550.22;5005294;28;20125;-88
2022/06/04 11:41:43;;;;;;;142.48;70.18;;;;;;;22.18;49.53;93548.19;4990482;28;20042;-87
2022/06/04 11:44:10;;;;;;;142.00;71.10;;;;;;;22.17;49.81;93566.72;5005545;28;20078;-88